Time;durP1;ratioP1;P1;durP2;ratioP2;P2;SDS_P1;SDS_P2;PMS_P1;PMS_P2;Temp;Humidity;BMP_temperature;BMP_pressure;BME280_temperature;BME280_humidity;BME280_pressure;Samples;Min_cycle;Max_cycle;Signal;HPM_P1;HPM_P2
2022/12/06 00:00:46;;;;;;;16.30;11.20;;;;;;;2.59;100.00;101168.09;5056730;28;20946;-65
2022/12/06 00:03:12;;;;;;;13.60;11.27;;;;;;;2.56;100.00;101174.88;5070846;28;20673;-64
2022/12/06 00:05:39;;;;;;;15.80;11.43;;;;;;;2.61;100.00;101173.38;5052204;28;20246;-65
2022/12/06 00:08:06;;;;;;;14.53;10.10;;;;;;;2.73;100.00;101172.94;5055235;28;20234;-65
2022/12/06 00:10:35;;;;;;;16.43;10.70;;;;;;;2.78;100.00;101171.41;5076020;28;20345;-63
2022/12/06 00:13:02;;;;;;;15.87;11.03;;;;;;;2.77;100.00;101169.63;5072778;28;20272;-64
2022/12/06 00:15:30;;;;;;;13.10;9.83;;;;;;;2.74;100.00;101173.00;5078725;28;20345;-65
2022/12/06 00:17:57;;;;;;;14.73;9.77;;;;;;;2.57;100.00;101174.06;5075112;28;20739;-65
2022/12/06 00:20:23;;;;;;;17.80;11.67;;;;;;;2.56;100.00;101167.09;5073634;28;20349;-65
2022/12/06 00:22:50;;;;;;;15.10;10.47;;;;;;;2.62;100.00;101175.13;5054131;28;20246;-63
2022/12/06 00:25:17;;;;;;;17.17;11.60;;;;;;;2.62;100.00;101175.13;5059668;28;20258;-63
2022/12/06 00:27:44;;;;;;;15.87;9.83;;;;;;;2.59;100.00;101169.81;5059247;28;20230;-63
2022/12/06 00:30:11;;;;;;;13.47;10.00;;;;;;;2.67;100.00;101171.00;5061199;28;20333;-63
2022/12/06 00:32:39;;;;;;;17.07;11.23;;;;;;;2.67;100.00;101168.41;5049979;28;20245;-63
2022/12/06 00:35:07;;;;;;;13.60;10.43;;;;;;;2.65;100.00;101172.66;5063886;28;20265;-63
2022/12/06 00:37:33;;;;;;;16.03;11.80;;;;;;;2.69;100.00;101177.13;5059997;28;20332;-67
2022/12/06 00:40:00;;;;;;;13.00;10.37;;;;;;;2.72;100.00;101172.06;5062047;28;20234;-64
2022/12/06 00:42:27;;;;;;;12.20;10.00;;;;;;;2.76;100.00;101173.06;5057178;28;20246;-63
2022/12/06 00:44:53;;;;;;;13.97;10.87;;;;;;;2.86;100.00;101164.78;5080191;28;20329;-64
2022/12/06 00:47:20;;;;;;;17.07;11.57;;;;;;;3.01;100.00;101161.88;5077264;28;20230;-64
2022/12/06 00:49:48;;;;;;;13.73;10.83;;;;;;;2.91;100.00;101163.25;5078982;28;20330;-68
2022/12/06 00:52:14;;;;;;;15.13;11.37;;;;;;;2.92;100.00;101166.75;5081857;28;20284;-65
2022/12/06 00:54:41;;;;;;;16.77;12.00;;;;;;;2.98;100.00;101164.34;5071118;28;20309;-64
2022/12/06 00:57:08;;;;;;;12.67;10.37;;;;;;;2.89;100.00;101164.91;5068383;28;20371;-63
2022/12/06 00:59:34;;;;;;;17.57;11.87;;;;;;;2.92;100.00;101165.03;5068256;28;20281;-63
2022/12/06 01:02:01;;;;;;;13.63;11.13;;;;;;;2.88;100.00;101163.16;5065026;28;20364;-63
2022/12/06 01:04:27;;;;;;;12.77;10.00;;;;;;;2.86;100.00;101155.31;5076267;28;20299;-64
2022/12/06 01:06:55;;;;;;;12.43;10.10;;;;;;;2.86;100.00;101162.19;5077222;28;20312;-64
2022/12/06 01:09:22;;;;;;;12.40;11.03;;;;;;;2.93;100.00;101155.53;5061717;28;20300;-63
2022/12/06 01:11:49;;;;;;;14.60;12.03;;;;;;;2.72;100.00;101151.31;5061785;28;20292;-64
2022/12/06 01:14:16;;;;;;;15.77;11.67;;;;;;;2.79;100.00;101153.31;5053085;28;20235;-63
2022/12/06 01:16:43;;;;;;;15.37;12.50;;;;;;;2.68;100.00;101149.44;5056148;28;20243;-63
2022/12/06 01:19:12;;;;;;;15.10;12.30;;;;;;;2.73;100.00;101142.69;5073505;28;20232;-62
2022/12/06 01:21:39;;;;;;;13.27;10.47;;;;;;;2.80;100.00;101154.19;5075693;28;20225;-64
2022/12/06 01:24:07;;;;;;;14.17;10.60;;;;;;;2.80;100.00;101149.88;5064594;28;20621;-64
2022/12/06 01:26:35;;;;;;;13.37;10.33;;;;;;;2.65;100.00;101141.53;5068694;28;20797;-64
2022/12/06 01:29:02;;;;;;;14.40;10.50;;;;;;;2.68;100.00;101143.38;5071252;28;20277;-64
2022/12/06 01:31:29;;;;;;;13.67;10.40;;;;;;;2.78;100.00;101143.78;5050965;28;20248;-66
2022/12/06 01:33:56;;;;;;;13.53;11.20;;;;;;;2.58;100.00;101150.78;5054222;28;20226;-66
2022/12/06 01:36:24;;;;;;;13.00;10.37;;;;;;;2.59;100.00;101154.25;5065621;28;20601;-66
2022/12/06 01:38:53;;;;;;;12.67;10.60;;;;;;;2.58;100.00;101149.91;5069458;28;20241;-65
2022/12/06 01:41:23;;;;;;;13.23;11.37;;;;;;;2.55;100.00;101154.97;5072587;28;20230;-64
2022/12/06 01:43:51;;;;;;;14.47;11.53;;;;;;;2.65;100.00;101148.44;5067731;28;20318;-64
2022/12/06 01:46:27;;;;;;;14.70;10.40;;;;;;;2.69;100.00;101150.31;5072576;28;20374;-64
2022/12/06 01:49:00;;;;;;;13.73;10.63;;;;;;;2.63;100.00;101150.97;5076342;28;20249;-64
2022/12/06 01:51:27;;;;;;;13.20;10.43;;;;;;;2.55;100.00;101147.19;5065364;28;20275;-64
2022/12/06 01:53:55;;;;;;;10.80;9.17;;;;;;;2.56;100.00;101146.38;5070799;28;20279;-63
2022/12/06 01:56:23;;;;;;;10.03;8.27;;;;;;;2.60;100.00;101140.50;5066126;28;20868;-64
2022/12/06 01:58:53;;;;;;;11.63;8.00;;;;;;;2.53;100.00;101149.75;5070884;28;20243;-63
2022/12/06 02:01:19;;;;;;;10.97;9.00;;;;;;;2.38;100.00;101141.38;5081300;28;20278;-64
2022/12/06 02:03:48;;;;;;;9.87;8.50;;;;;;;2.34;100.00;101148.13;5076799;28;20276;-63
2022/12/06 02:06:15;;;;;;;9.27;8.27;;;;;;;2.41;100.00;101145.78;5079761;28;20243;-63
2022/12/06 02:08:43;;;;;;;12.13;8.87;;;;;;;2.34;100.00;101142.97;5076598;28;20230;-63
2022/12/06 02:11:10;;;;;;;11.93;8.80;;;;;;;2.31;100.00;101136.78;5076602;28;20940;-64
2022/12/06 02:13:39;;;;;;;11.03;8.87;;;;;;;2.28;100.00;101136.66;5061805;28;20651;-63
2022/12/06 02:16:15;;;;;;;12.37;9.80;;;;;;;2.32;100.00;101123.03;5065324;28;20727;-63
2022/12/06 02:18:47;;;;;;;10.07;9.03;;;;;;;2.49;100.00;101126.22;5078101;28;20718;-63
2022/12/06 02:21:21;;;;;;;12.97;9.33;;;;;;;2.57;100.00;101124.84;5071775;28;20230;-63
2022/12/06 02:24:12;;;;;;;15.50;11.07;;;;;;;2.43;100.00;101120.84;5064414;28;20375;-63
2022/12/06 02:26:40;;;;;;;13.50;10.57;;;;;;;2.51;100.00;101119.41;5067816;28;20238;-62
2022/12/06 02:29:38;;;;;;;15.80;10.70;;;;;;;2.38;100.00;101116.34;5074334;28;20218;-62
2022/12/06 02:32:09;;;;;;;13.23;11.00;;;;;;;2.37;100.00;101105.94;5053370;28;20744;-63
2022/12/06 02:34:42;;;;;;;15.40;12.00;;;;;;;2.43;100.00;101118.25;5072820;28;20249;-64
2022/12/06 02:37:12;;;;;;;15.70;12.10;;;;;;;2.39;100.00;101115.53;5083324;28;20227;-64
2022/12/06 02:39:43;;;;;;;15.20;12.20;;;;;;;2.51;100.00;101114.22;5077293;28;20773;-62
2022/12/06 02:42:13;;;;;;;16.00;12.30;;;;;;;2.55;100.00;101105.75;5072072;28;20229;-64
2022/12/06 02:44:43;;;;;;;15.70;12.10;;;;;;;2.43;100.00;101105.28;5069155;28;20325;-64
2022/12/06 02:47:13;;;;;;;16.30;12.40;;;;;;;2.47;100.00;101108.03;5073827;28;20237;-64
2022/12/06 02:49:43;;;;;;;16.13;13.40;;;;;;;2.32;100.00;101110.06;5076915;28;20699;-63
2022/12/06 02:52:11;;;;;;;17.53;12.40;;;;;;;2.37;100.00;101105.94;5080939;28;20309;-62
2022/12/06 02:54:39;;;;;;;17.90;13.90;;;;;;;2.45;100.00;101103.63;5085491;28;20741;-63
2022/12/06 02:57:06;;;;;;;15.63;11.47;;;;;;;2.45;100.00;101103.63;5084049;28;20255;-64
2022/12/06 02:59:32;;;;;;;17.67;13.40;;;;;;;2.42;100.00;101103.50;5077112;28;20240;-63
2022/12/06 03:02:02;;;;;;;17.97;12.67;;;;;;;2.38;100.00;101103.38;5086171;28;20295;-63
2022/12/06 03:04:45;;;;;;;16.13;12.77;;;;;;;2.55;100.00;101095.38;5074478;28;20246;-63
2022/12/06 03:07:24;;;;;;;17.03;13.57;;;;;;;2.55;100.00;101095.38;5076755;28;20835;-63
2022/12/06 03:10:04;;;;;;;16.97;12.30;;;;;;;2.45;100.00;101104.50;5083755;28;20687;-63
2022/12/06 03:12:35;;;;;;;18.33;13.97;;;;;;;2.49;100.00;101100.31;5074626;28;20237;-62
2022/12/06 03:15:10;;;;;;;17.57;13.43;;;;;;;2.51;100.00;101093.50;5078291;28;20307;-62
2022/12/06 03:17:40;;;;;;;17.53;11.97;;;;;;;2.44;100.00;101081.13;5082191;28;20240;-62
2022/12/06 03:20:12;;;;;;;16.90;12.23;;;;;;;2.58;100.00;101075.63;5083208;28;20756;-63
2022/12/06 03:22:40;;;;;;;16.67;10.73;;;;;;;2.45;100.00;101077.72;5082100;28;20222;-62
2022/12/06 03:25:08;;;;;;;11.73;8.70;;;;;;;2.34;100.00;101074.72;5074706;28;20230;-62
2022/12/06 03:27:36;;;;;;;11.23;8.83;;;;;;;2.17;100.00;101073.19;5080391;28;20605;-62
2022/12/06 03:30:07;;;;;;;10.30;8.50;;;;;;;2.15;100.00;101073.16;5081659;28;20324;-62
2022/12/06 03:32:34;;;;;;;11.13;7.80;;;;;;;2.22;100.00;101069.97;5076428;28;20741;-62
2022/12/06 03:35:06;;;;;;;8.57;7.70;;;;;;;2.17;100.00;101070.59;5077073;28;20700;-62
2022/12/06 03:37:36;;;;;;;11.33;8.03;;;;;;;2.11;100.00;101072.16;5083841;28;20675;-63
2022/12/06 03:40:08;;;;;;;9.63;7.17;;;;;;;2.10;100.00;101065.19;5076623;28;20308;-63
2022/12/06 03:42:35;;;;;;;9.00;7.43;;;;;;;2.17;100.00;101068.00;5074132;28;20316;-63
2022/12/06 03:45:04;;;;;;;10.07;8.43;;;;;;;2.17;100.00;101065.41;5080648;28;20382;-62
2022/12/06 03:47:34;;;;;;;8.37;7.07;;;;;;;2.18;100.00;101065.50;5075565;28;20278;-62
2022/12/06 03:50:04;;;;;;;10.40;8.50;;;;;;;2.20;100.00;101065.53;5073562;28;20688;-63
2022/12/06 03:52:31;;;;;;;11.37;8.70;;;;;;;2.19;100.00;101062.06;5082922;28;20249;-63
2022/12/06 03:54:59;;;;;;;13.47;9.53;;;;;;;2.23;100.00;101063.94;5082204;28;20279;-64
2022/12/06 03:57:26;;;;;;;11.47;9.33;;;;;;;2.24;100.00;101067.41;5071507;28;20322;-63
2022/12/06 03:59:53;;;;;;;13.00;8.60;;;;;;;2.14;100.00;101055.81;5072269;28;20222;-62
2022/12/06 04:02:20;;;;;;;9.70;8.03;;;;;;;2.13;100.00;101069.59;5089168;28;20238;-64
2022/12/06 04:04:48;;;;;;;8.13;7.00;;;;;;;2.24;100.00;101057.94;5077521;28;20233;-63
2022/12/06 04:07:14;;;;;;;13.00;8.20;;;;;;;2.35;100.00;101055.75;5077638;28;20234;-63
2022/12/06 04:09:55;;;;;;;8.57;7.30;;;;;;;2.38;100.00;101056.75;5078556;28;20268;-63
2022/12/06 04:15:09;;;;;;;10.13;7.93;;;;;;;2.21;100.00;101052.66;5058762;28;20241;-62
2022/12/06 04:20:23;;;;;;;10.00;8.50;;;;;;;2.18;100.00;101051.63;5081194;28;20285;-63
2022/12/06 04:23:04;;;;;;;9.20;8.17;;;;;;;2.20;100.00;101044.81;5072889;28;20463;-63
2022/12/06 04:25:31;;;;;;;10.50;8.13;;;;;;;2.18;100.00;101049.03;5078664;28;20252;-63
2022/12/06 04:38:58;;;;;;;8.63;7.40;;;;;;;2.30;100.00;101021.03;5073982;28;20259;-66
2022/12/06 04:44:10;;;;;;;11.70;9.20;;;;;;;2.15;100.00;101013.56;5074161;28;20299;-68
2022/12/06 04:46:37;;;;;;;9.10;7.87;;;;;;;2.02;100.00;101007.03;5081030;28;20255;-62
2022/12/06 04:49:05;;;;;;;9.33;7.53;;;;;;;2.18;100.00;101000.75;5070791;28;20317;-62
2022/12/06 04:51:32;;;;;;;8.23;6.37;;;;;;;2.14;100.00;100998.84;5065933;28;20237;-62
2022/12/06 04:53:59;;;;;;;7.43;6.40;;;;;;;2.10;100.00;101003.03;5056560;28;20223;-63
2022/12/06 04:56:26;;;;;;;7.77;6.37;;;;;;;2.07;100.00;101012.38;5066262;28;20264;-63
2022/12/06 04:58:53;;;;;;;7.43;6.17;;;;;;;2.12;100.00;101010.88;5071485;28;20242;-63
2022/12/06 05:01:21;;;;;;;6.60;6.00;;;;;;;2.16;100.00;101002.38;5066735;28;20299;-63
2022/12/06 05:03:48;;;;;;;9.03;7.50;;;;;;;2.18;100.00;101005.94;5060273;28;20267;-65
2022/12/06 05:06:15;;;;;;;7.63;6.20;;;;;;;2.19;100.00;101005.09;5061141;28;20241;-62
2022/12/06 05:08:42;;;;;;;6.43;5.80;;;;;;;2.17;100.00;101005.84;5068997;28;20717;-64
2022/12/06 05:11:09;;;;;;;7.13;5.63;;;;;;;2.36;100.00;101001.41;5082513;28;20692;-64
2022/12/06 05:13:37;;;;;;;5.93;5.37;;;;;;;2.30;100.00;101008.06;5074191;28;20696;-63
2022/12/06 05:16:05;;;;;;;6.07;5.47;;;;;;;2.30;100.00;101008.94;5058204;28;20257;-63
2022/12/06 05:18:34;;;;;;;5.77;5.07;;;;;;;2.33;100.00;101000.41;5066412;28;20354;-63
2022/12/06 05:21:02;;;;;;;7.93;5.33;;;;;;;2.25;100.00;101000.16;5076542;28;20303;-62
2022/12/06 05:23:29;;;;;;;7.47;5.53;;;;;;;2.35;100.00;101002.25;5077806;28;20261;-62
2022/12/06 05:25:58;;;;;;;6.27;5.10;;;;;;;2.36;100.00;101000.53;5078432;28;20238;-65
2022/12/06 05:28:25;;;;;;;8.77;6.03;;;;;;;2.32;100.00;100998.66;5072522;28;20241;-63
2022/12/06 05:30:52;;;;;;;6.70;5.77;;;;;;;2.29;100.00;101001.13;5070187;28;20364;-63
2022/12/06 05:33:18;;;;;;;8.33;5.57;;;;;;;2.30;100.00;100993.41;5076084;28;20229;-63
2022/12/06 05:35:47;;;;;;;7.10;5.90;;;;;;;2.20;100.00;100999.06;5072104;28;20278;-63
2022/12/06 05:38:14;;;;;;;7.10;5.83;;;;;;;2.21;100.00;100998.28;5070350;28;20376;-64
2022/12/06 05:40:41;;;;;;;6.47;5.87;;;;;;;2.19;100.00;100993.84;5067932;28;20764;-63
2022/12/06 05:43:08;;;;;;;9.57;6.07;;;;;;;2.24;100.00;101000.94;5073723;28;20243;-62
2022/12/06 05:45:36;;;;;;;6.23;5.63;;;;;;;2.25;100.00;100994.09;5070758;28;20241;-63
2022/12/06 05:48:03;;;;;;;9.27;6.90;;;;;;;2.28;100.00;100996.75;5080555;28;20289;-63
2022/12/06 05:50:30;;;;;;;7.80;5.80;;;;;;;2.31;100.00;100997.75;5081046;28;20854;-63
2022/12/06 05:53:00;;;;;;;7.60;6.53;;;;;;;2.25;100.00;100992.38;5081878;28;20233;-63
2022/12/06 05:55:28;;;;;;;7.40;6.20;;;;;;;2.28;100.00;100987.31;5073518;28;20252;-62
2022/12/06 05:57:55;;;;;;;8.07;7.27;;;;;;;2.29;100.00;100996.84;5080431;28;20338;-62
2022/12/06 06:00:22;;;;;;;9.03;6.07;;;;;;;2.27;100.00;100992.41;5074264;28;20335;-62
2022/12/06 06:02:51;;;;;;;8.87;6.63;;;;;;;2.26;100.00;100993.25;5085137;28;20230;-64
2022/12/06 06:05:17;;;;;;;6.17;5.53;;;;;;;2.16;100.00;100997.19;5085918;28;20347;-65
2022/12/06 06:07:44;;;;;;;7.23;6.53;;;;;;;2.11;100.00;100993.56;5063579;28;20352;-63
2022/12/06 06:10:13;;;;;;;6.83;5.87;;;;;;;2.12;100.00;100998.78;5070971;28;20226;-63
2022/12/06 06:12:40;;;;;;;8.87;7.27;;;;;;;1.98;100.00;101004.28;5079649;28;20244;-62
2022/12/06 06:15:07;;;;;;;8.10;6.90;;;;;;;2.03;100.00;100998.44;5077724;28;20329;-63
2022/12/06 06:17:35;;;;;;;8.43;6.73;;;;;;;2.09;100.00;100990.03;5078043;28;20312;-64
2022/12/06 06:20:04;;;;;;;7.20;6.40;;;;;;;2.04;100.00;100991.59;5076772;28;20302;-64
2022/12/06 06:22:31;;;;;;;9.57;6.90;;;;;;;2.11;100.00;100998.75;5076170;28;20279;-62
2022/12/06 06:24:58;;;;;;;6.83;6.13;;;;;;;2.07;100.00;100984.81;5080942;28;20241;-63
2022/12/06 06:27:27;;;;;;;9.07;7.37;;;;;;;2.13;100.00;100986.72;5078164;28;20794;-63
2022/12/06 06:29:54;;;;;;;8.67;6.53;;;;;;;2.16;100.00;100989.44;5081361;28;20317;-63
2022/12/06 06:32:21;;;;;;;8.17;6.90;;;;;;;2.02;100.00;100990.63;5078669;28;20233;-64
2022/12/06 06:34:48;;;;;;;6.63;5.83;;;;;;;2.18;100.00;100998.16;5079782;28;20319;-63
2022/12/06 06:37:15;;;;;;;7.97;6.43;;;;;;;2.09;100.00;101008.16;5079784;28;20234;-63
2022/12/06 06:39:42;;;;;;;6.83;6.13;;;;;;;2.16;100.00;101007.56;5078480;28;20831;-64
2022/12/06 06:42:08;;;;;;;7.30;6.60;;;;;;;2.00;100.00;101000.94;5083505;28;20302;-63
2022/12/06 06:44:37;;;;;;;8.57;6.40;;;;;;;2.05;100.00;101001.09;5082199;28;20238;-63
2022/12/06 06:47:04;;;;;;;7.20;6.50;;;;;;;1.98;100.00;101001.69;5079966;28;20245;-63
2022/12/06 06:49:31;;;;;;;7.77;6.30;;;;;;;2.01;100.00;101004.41;5068182;28;20231;-63
2022/12/06 06:51:58;;;;;;;7.73;6.73;;;;;;;2.02;100.00;101004.44;5062480;28;20247;-63
2022/12/06 06:54:26;;;;;;;7.83;6.87;;;;;;;2.05;100.00;100995.94;5069912;28;20234;-63
2022/12/06 06:56:54;;;;;;;7.53;6.73;;;;;;;2.01;100.00;101002.69;5080626;28;20283;-63
2022/12/06 06:59:21;;;;;;;8.30;7.50;;;;;;;2.06;100.00;101002.84;5081731;28;20253;-63
2022/12/06 07:01:49;;;;;;;7.87;6.30;;;;;;;2.02;100.00;100999.28;5068026;28;20260;-64
2022/12/06 07:04:16;;;;;;;8.20;6.80;;;;;;;2.03;100.00;100998.44;5065473;28;20736;-62
2022/12/06 07:06:43;;;;;;;6.80;6.10;;;;;;;2.10;100.00;101002.16;5061636;28;20238;-64
2022/12/06 07:09:11;;;;;;;7.87;6.20;;;;;;;2.08;100.00;101009.00;5064927;28;20234;-62
2022/12/06 07:11:38;;;;;;;7.03;6.17;;;;;;;2.08;100.00;101014.16;5076675;28;20318;-63
2022/12/06 07:14:05;;;;;;;6.57;5.57;;;;;;;1.96;100.00;101004.22;5072934;28;20778;-63
2022/12/06 07:16:32;;;;;;;7.40;6.60;;;;;;;2.01;100.00;101007.88;5071971;28;21777;-63
2022/12/06 07:19:00;;;;;;;7.43;6.03;;;;;;;2.13;100.00;101008.31;5079751;28;20229;-63
2022/12/06 07:21:27;;;;;;;7.87;6.53;;;;;;;2.06;100.00;101008.03;5071431;28;20234;-64
2022/12/06 07:23:54;;;;;;;7.67;5.73;;;;;;;2.11;100.00;101001.34;5069488;28;20719;-64
2022/12/06 07:26:23;;;;;;;9.37;6.90;;;;;;;2.11;100.00;101003.94;5067784;28;20240;-63
2022/12/06 07:28:51;;;;;;;7.33;6.63;;;;;;;2.05;100.00;101014.06;5063481;28;20319;-66
2022/12/06 07:31:19;;;;;;;7.23;6.27;;;;;;;2.12;100.00;101008.28;5065929;28;20648;-64
2022/12/06 07:33:47;;;;;;;7.33;6.03;;;;;;;2.07;100.00;101007.22;5053598;28;20243;-63
2022/12/06 07:36:16;;;;;;;7.13;6.43;;;;;;;2.19;100.00;101004.22;5067230;28;20241;-64
2022/12/06 07:38:43;;;;;;;6.13;5.40;;;;;;;2.22;100.00;101010.38;5073318;28;20254;-63
2022/12/06 07:46:41;;;;;;;6.43;5.13;;;;;;;2.26;100.00;101004.50;5067370;28;20296;-63
2022/12/06 07:49:09;;;;;;;5.67;4.80;;;;;;;2.31;100.00;101015.88;5075804;28;20237;-63
2022/12/06 07:51:38;;;;;;;9.87;5.13;;;;;;;2.35;100.00;101010.03;5083157;28;20252;-63
2022/12/06 07:54:06;;;;;;;6.00;5.20;;;;;;;2.27;100.00;101011.44;5068994;28;20582;-63
2022/12/06 07:56:32;;;;;;;5.63;4.87;;;;;;;2.36;100.00;101016.97;5055545;28;20731;-63
2022/12/06 07:59:00;;;;;;;8.10;5.73;;;;;;;2.30;100.00;101013.25;5064180;28;20228;-62
2022/12/06 08:01:27;;;;;;;6.73;5.67;;;;;;;2.31;100.00;101012.41;5069234;28;20673;-63
2022/12/06 08:03:55;;;;;;;7.07;5.43;;;;;;;2.32;100.00;101004.72;5075075;28;20810;-64
2022/12/06 08:06:22;;;;;;;6.70;5.57;;;;;;;2.34;100.00;101008.22;5064752;28;22072;-64
2022/12/06 08:08:51;;;;;;;7.10;6.07;;;;;;;2.39;100.00;101006.72;5076415;28;20241;-63
2022/12/06 08:11:19;;;;;;;6.87;6.10;;;;;;;2.12;100.00;101005.69;5072167;28;20226;-64
2022/12/06 08:13:46;;;;;;;7.53;5.70;;;;;;;2.19;100.00;101007.69;5070865;28;20636;-63
2022/12/06 08:16:13;;;;;;;8.43;6.20;;;;;;;2.32;100.00;101009.03;5079714;28;20636;-63
2022/12/06 08:18:40;;;;;;;7.03;5.43;;;;;;;2.32;100.00;101007.31;5069289;28;20241;-65
2022/12/06 08:21:08;;;;;;;6.13;5.53;;;;;;;2.30;100.00;101006.38;5061488;28;20230;-63
2022/12/06 08:23:35;;;;;;;6.37;5.60;;;;;;;2.34;100.00;101013.41;5078764;28;20234;-63
2022/12/06 08:26:06;;;;;;;6.73;5.33;;;;;;;2.34;100.00;101018.59;5075936;28;20249;-64
2022/12/06 08:28:34;;;;;;;5.47;4.97;;;;;;;2.30;100.00;101011.53;5080771;28;20249;-63
2022/12/06 08:31:05;;;;;;;6.50;5.87;;;;;;;2.20;100.00;101009.44;5077575;28;20223;-66
2022/12/06 08:33:33;;;;;;;6.80;5.63;;;;;;;2.26;100.00;101014.84;5084560;28;20648;-63
2022/12/06 08:36:01;;;;;;;6.43;5.43;;;;;;;2.26;100.00;101014.84;5083470;28;20587;-63
2022/12/06 08:38:28;;;;;;;6.63;5.40;;;;;;;2.31;100.00;101013.28;5085546;28;20290;-62
2022/12/06 08:40:55;;;;;;;4.90;4.40;;;;;;;2.35;100.00;101017.78;5083500;28;20230;-63
2022/12/06 08:43:24;;;;;;;5.50;4.97;;;;;;;2.31;100.00;101017.59;5087474;28;20238;-63
2022/12/06 08:45:51;;;;;;;7.50;4.87;;;;;;;2.29;100.00;101020.16;5081524;28;20237;-63
2022/12/06 08:48:18;;;;;;;4.30;3.90;;;;;;;2.16;100.00;101012.75;5062186;28;20245;-63
2022/12/06 08:50:45;;;;;;;5.33;4.80;;;;;;;2.23;100.00;101009.56;5069667;28;20328;-63
2022/12/06 08:53:12;;;;;;;5.40;4.90;;;;;;;2.35;100.00;101010.03;5075940;28;20260;-65
2022/12/06 08:55:40;;;;;;;4.67;4.17;;;;;;;2.34;100.00;101013.41;5069445;28;20324;-63
2022/12/06 08:58:07;;;;;;;5.53;4.53;;;;;;;2.30;100.00;101006.38;5060902;28;20295;-64
2022/12/06 09:00:35;;;;;;;5.30;4.80;;;;;;;2.27;100.00;101011.44;5077574;28;20326;-63
2022/12/06 09:03:02;;;;;;;5.23;4.73;;;;;;;2.24;100.00;101016.50;5078415;28;20320;-63
2022/12/06 09:05:29;;;;;;;5.80;4.80;;;;;;;2.25;100.00;101018.28;5070304;28;20262;-62
2022/12/06 09:07:56;;;;;;;4.90;4.27;;;;;;;2.24;100.00;101003.53;5069029;28;20703;-62
2022/12/06 09:10:23;;;;;;;5.33;4.83;;;;;;;2.24;100.00;101011.31;5061614;28;20285;-62
2022/12/06 09:12:50;;;;;;;6.47;5.33;;;;;;;2.28;100.00;101008.03;5072911;28;20328;-63
2022/12/06 09:15:17;;;;;;;5.43;4.47;;;;;;;2.31;100.00;101002.94;5067067;28;20318;-64
2022/12/06 09:17:46;;;;;;;7.13;4.93;;;;;;;2.35;100.00;101014.28;5068273;28;20244;-64
2022/12/06 09:20:16;;;;;;;6.03;4.60;;;;;;;2.10;100.00;101012.50;5078096;28;20348;-64
2022/12/06 09:22:44;;;;;;;5.83;4.87;;;;;;;2.18;100.00;101011.09;5068340;28;20633;-64
2022/12/06 09:25:11;;;;;;;7.23;5.23;;;;;;;2.19;100.00;101007.69;5068663;28;20230;-63
2022/12/06 09:27:39;;;;;;;5.67;5.07;;;;;;;2.30;100.00;101006.38;5077029;28;20254;-64
2022/12/06 09:30:07;;;;;;;5.87;5.37;;;;;;;2.27;100.00;101001.06;5069155;28;20243;-63
2022/12/06 09:32:34;;;;;;;5.97;4.67;;;;;;;2.29;100.00;100995.97;5051724;28;20255;-62
2022/12/06 09:35:03;;;;;;;5.90;4.17;;;;;;;2.34;100.00;100992.69;5052841;28;20385;-63
2022/12/06 09:37:29;;;;;;;7.93;5.03;;;;;;;2.42;100.00;100999.84;5060154;28;20238;-62
2022/12/06 09:39:58;;;;;;;5.93;5.13;;;;;;;2.37;100.00;100998.00;5062629;28;20928;-63
2022/12/06 09:42:58;;;;;;;4.90;4.33;;;;;;;2.42;100.00;101000.72;5050839;28;20242;-61
2022/12/06 09:46:03;;;;;;;5.20;4.70;;;;;;;2.50;100.00;100993.25;5067282;28;20841;-64
2022/12/06 09:48:45;;;;;;;6.33;4.80;;;;;;;2.48;100.00;100981.94;5059782;28;20242;-63
2022/12/06 09:51:26;;;;;;;6.20;5.20;;;;;;;2.41;100.00;100982.56;5078961;28;20302;-64
2022/12/06 09:54:07;;;;;;;5.70;4.50;;;;;;;2.42;100.00;100973.94;5067074;28;20659;-63
2022/12/06 09:56:36;;;;;;;5.73;5.23;;;;;;;2.42;100.00;100981.72;5062249;28;20381;-63
2022/12/06 09:59:13;;;;;;;6.30;5.00;;;;;;;2.25;100.00;100983.72;5074371;28;20310;-63
2022/12/06 10:01:58;;;;;;;5.60;4.77;;;;;;;2.13;100.00;100984.13;5077226;28;20629;-64
2022/12/06 10:04:38;;;;;;;7.43;5.27;;;;;;;2.26;100.00;100978.59;5084311;28;20691;-61
2022/12/06 10:07:11;;;;;;;5.07;4.57;;;;;;;2.25;100.00;100987.19;5079246;28;20779;-63
2022/12/06 10:09:45;;;;;;;5.50;4.97;;;;;;;2.22;100.00;100974.13;5075973;28;20315;-61
2022/12/06 10:12:24;;;;;;;7.17;5.30;;;;;;;2.23;100.00;100973.28;5065630;28;20228;-62
2022/12/06 10:15:09;;;;;;;5.63;5.03;;;;;;;2.25;100.00;100969.06;5069868;28;20234;-63
2022/12/06 10:17:46;;;;;;;5.73;5.23;;;;;;;2.17;100.00;100970.47;5060733;28;20283;-62
2022/12/06 10:20:19;;;;;;;5.80;5.20;;;;;;;2.02;100.00;100973.38;5081272;28;20285;-61
2022/12/06 10:22:55;;;;;;;7.80;5.57;;;;;;;2.05;100.00;100967.44;5082702;28;20261;-64
2022/12/06 10:25:24;;;;;;;7.97;6.00;;;;;;;2.06;100.00;100964.00;5066872;28;20653;-59
2022/12/06 10:28:01;;;;;;;5.03;4.53;;;;;;;2.07;100.00;100965.78;5070653;28;20309;-59
2022/12/06 10:30:27;;;;;;;7.43;5.37;;;;;;;2.14;100.00;100960.00;5061751;28;20763;-63
2022/12/06 10:33:02;;;;;;;6.97;5.33;;;;;;;2.20;100.00;100962.81;5063092;28;20366;-64
2022/12/06 10:35:40;;;;;;;6.07;4.73;;;;;;;2.20;100.00;100962.81;5051885;28;20787;-63
2022/12/06 10:38:17;;;;;;;6.60;5.97;;;;;;;2.21;100.00;100954.25;5048478;28;20730;-65
2022/12/06 10:40:51;;;;;;;5.80;5.07;;;;;;;2.27;100.00;100949.25;5051545;28;20222;-64
2022/12/06 10:43:22;;;;;;;6.47;5.23;;;;;;;2.21;100.00;100946.47;5058360;28;20233;-64
2022/12/06 10:48:39;;;;;;;7.10;5.67;;;;;;;2.29;100.00;100949.31;5053425;28;20248;-65
2022/12/06 10:51:09;;;;;;;9.50;5.93;;;;;;;2.32;100.00;100942.56;5051408;28;20371;-65
2022/12/06 10:53:41;;;;;;;7.80;6.17;;;;;;;2.34;100.00;100943.47;5063069;28;20253;-65
2022/12/06 10:56:13;;;;;;;7.13;5.57;;;;;;;2.33;100.00;100938.25;5077516;28;20234;-65
2022/12/06 10:58:45;;;;;;;7.10;6.17;;;;;;;2.36;100.00;100943.53;5067667;28;20559;-64
2022/12/06 11:01:14;;;;;;;9.73;7.10;;;;;;;2.39;100.00;100939.34;5075270;28;20287;-59
2022/12/06 11:03:44;;;;;;;8.70;7.40;;;;;;;2.38;100.00;100942.75;5075456;28;20730;-62
2022/12/06 11:06:13;;;;;;;7.73;6.33;;;;;;;2.36;100.00;100936.66;5062466;28;20251;-61
2022/12/06 11:08:44;;;;;;;9.93;5.93;;;;;;;2.32;100.00;100927.00;5070495;28;20237;-65
2022/12/06 11:11:15;;;;;;;9.60;6.60;;;;;;;2.37;100.00;100935.81;5073526;28;20226;-61
2022/12/06 11:13:46;;;;;;;7.83;6.33;;;;;;;2.43;100.00;100927.38;5076100;28;20226;-61
2022/12/06 11:16:17;;;;;;;9.47;6.37;;;;;;;2.37;100.00;100930.63;5081104;28;20334;-63
2022/12/06 11:18:45;;;;;;;7.73;5.47;;;;;;;2.40;100.00;100922.09;5081483;28;20236;-64
2022/12/06 11:21:20;;;;;;;7.93;6.57;;;;;;;2.27;100.00;100918.16;5083571;28;20735;-64
2022/12/06 11:23:53;;;;;;;7.67;5.03;;;;;;;2.29;100.00;100921.72;5079445;28;20350;-64
2022/12/06 11:26:29;;;;;;;6.77;5.33;;;;;;;2.24;100.00;100918.06;5075646;28;20331;-68
2022/12/06 11:29:04;;;;;;;8.13;5.70;;;;;;;2.41;100.00;100922.97;5075554;28;20240;-64
2022/12/06 11:31:32;;;;;;;6.93;5.13;;;;;;;2.26;100.00;100920.72;5082492;28;20715;-63
2022/12/06 11:33:59;;;;;;;9.50;6.00;;;;;;;2.25;100.00;100914.66;5074665;28;20279;-63
2022/12/06 11:36:28;;;;;;;7.17;4.97;;;;;;;2.34;100.00;100916.69;5082120;28;20229;-63
2022/12/06 11:38:56;;;;;;;7.63;5.63;;;;;;;2.41;100.00;100925.56;5082077;28;20324;-62
2022/12/06 11:41:25;;;;;;;9.13;6.83;;;;;;;2.45;100.00;100914.47;5084693;28;20261;-63
2022/12/06 11:43:53;;;;;;;6.10;5.43;;;;;;;2.46;100.00;100916.22;5084419;28;20311;-63
2022/12/06 11:46:21;;;;;;;9.50;5.63;;;;;;;2.53;100.00;100908.72;5084111;28;20737;-63
2022/12/06 11:48:47;;;;;;;6.73;5.37;;;;;;;2.50;100.00;100902.56;5083676;28;20261;-65
2022/12/06 11:51:17;;;;;;;6.00;5.20;;;;;;;2.48;100.00;100901.63;5084981;28;20237;-63
2022/12/06 11:53:54;;;;;;;6.20;5.30;;;;;;;2.51;100.00;100906.91;5078229;28;20258;-63
2022/12/06 11:56:25;;;;;;;6.17;5.00;;;;;;;2.50;100.00;100897.38;5080355;28;20321;-64